createdAt,value
2022-09-01T00:01:04.000Z,12.03
2022-09-01T00:03:35.905Z,12.03
2022-09-01T00:06:10.322Z,10.27
2022-09-01T00:08:42.741Z,11.10
2022-09-01T00:11:13.497Z,9.40
2022-09-01T00:13:44.566Z,11.67
2022-09-01T00:16:17.426Z,12.00
2022-09-01T00:18:50.669Z,11.13
2022-09-01T00:21:24.646Z,10.13
2022-09-01T00:23:57.154Z,10.90
2022-09-01T00:26:27.884Z,9.90
2022-09-01T00:28:58.790Z,10.67
2022-09-01T00:31:30.074Z,11.30
2022-09-01T00:34:00.854Z,11.27
2022-09-01T00:36:31.611Z,11.10
2022-09-01T00:39:04.226Z,11.53
2022-09-01T00:41:37.180Z,10.73
2022-09-01T00:44:09.869Z,10.63
2022-09-01T00:46:49.796Z,9.90
2022-09-01T00:49:31.464Z,9.90
2022-09-01T00:52:04.665Z,9.63
2022-09-01T00:54:42.626Z,11.27
2022-09-01T00:57:14.766Z,10.73
2022-09-01T00:59:50.976Z,11.13
2022-09-01T01:02:21.711Z,11.87
2022-09-01T01:04:53.522Z,11.33
2022-09-01T01:07:28.014Z,11.77
2022-09-01T01:10:00.627Z,10.90
2022-09-01T01:12:31.684Z,11.33
2022-09-01T01:15:04.980Z,11.83
2022-09-01T01:17:36.018Z,10.73
2022-09-01T01:20:24.378Z,10.63
2022-09-01T01:23:08.549Z,11.93
2022-09-01T01:25:43.235Z,11.17
2022-09-01T01:28:17.030Z,11.00
2022-09-01T01:30:51.840Z,11.57
2022-09-01T01:33:23.840Z,10.20
2022-09-01T01:35:58.351Z,11.97
2022-09-01T01:38:31.281Z,12.00
2022-09-01T01:41:04.476Z,11.57
2022-09-01T01:43:35.202Z,10.97
2022-09-01T01:46:09.075Z,11.67
2022-09-01T01:48:42.384Z,11.97
2022-09-01T01:51:14.769Z,10.80
2022-09-01T01:53:45.506Z,5.90
2022-09-01T01:56:19.215Z,4.93
2022-09-01T01:58:50.184Z,4.07
2022-09-01T02:01:21.028Z,3.90
2022-09-01T02:03:53.800Z,2.83
2022-09-01T02:06:25.784Z,2.80
2022-09-01T02:08:58.790Z,2.37
2022-09-01T02:11:33.796Z,2.10
2022-09-01T02:14:04.573Z,2.27
2022-09-01T02:16:35.421Z,2.90
2022-09-01T02:19:09.731Z,2.20
2022-09-01T02:21:45.851Z,2.70
2022-09-01T02:24:16.567Z,1.93
2022-09-01T02:26:49.799Z,1.93
2022-09-01T02:29:24.773Z,2.10
2022-09-01T02:31:56.296Z,2.13
2022-09-01T02:34:29.794Z,1.80
2022-09-01T02:37:01.053Z,2.00
2022-09-01T02:39:34.373Z,1.87
2022-09-01T02:42:07.040Z,2.10
2022-09-01T02:44:41.179Z,2.10
2022-09-01T02:47:12.252Z,1.93
2022-09-01T02:49:43.845Z,2.07
2022-09-01T02:52:16.699Z,2.10
2022-09-01T02:54:49.930Z,1.67
2022-09-01T02:57:25.741Z,1.90
2022-09-01T02:59:59.754Z,1.77
2022-09-01T03:02:30.908Z,1.93
2022-09-01T03:05:02.799Z,1.70
2022-09-01T03:07:33.604Z,1.50
2022-09-01T03:10:10.487Z,1.77
2022-09-01T03:12:42.815Z,1.60
2022-09-01T03:15:14.083Z,1.50
2022-09-01T03:17:44.792Z,1.83
2022-09-01T03:20:15.516Z,1.73
2022-09-01T03:22:48.256Z,2.07
2022-09-01T03:25:19.546Z,2.00
2022-09-01T03:27:52.500Z,1.90
2022-09-01T03:30:23.574Z,1.70
2022-09-01T03:32:54.276Z,1.87
2022-09-01T03:35:26.027Z,1.60
2022-09-01T03:37:59.981Z,1.80
2022-09-01T03:40:35.004Z,1.93
2022-09-01T03:43:10.750Z,1.80
2022-09-01T03:45:41.499Z,2.07
2022-09-01T03:48:13.519Z,2.03
2022-09-01T03:50:47.060Z,1.97
2022-09-01T03:53:20.268Z,2.50
2022-09-01T03:55:55.757Z,2.20
2022-09-01T03:58:28.941Z,2.30
2022-09-01T04:01:03.667Z,2.37
2022-09-01T04:03:36.908Z,1.90
2022-09-01T04:06:13.512Z,1.93
2022-09-01T04:08:44.816Z,2.80
2022-09-01T04:11:19.308Z,2.03
2022-09-01T04:13:51.826Z,1.70
2022-09-01T04:16:41.586Z,2.00
2022-09-01T04:19:21.057Z,2.27
2022-09-01T04:21:53.356Z,2.80
2022-09-01T04:24:25.481Z,1.87
2022-09-01T04:26:57.247Z,2.73
2022-09-01T04:29:30.852Z,2.30
2022-09-01T04:32:04.557Z,2.30
2022-09-01T04:34:39.671Z,2.10
2022-09-01T04:37:15.955Z,2.20
2022-09-01T04:39:56.282Z,2.20
2022-09-01T04:42:29.882Z,2.20
2022-09-01T04:45:10.721Z,2.23
2022-09-01T04:47:42.849Z,2.20
2022-09-01T04:50:18.157Z,2.43
2022-09-01T04:52:50.135Z,2.40
2022-09-01T04:55:21.098Z,2.40
2022-09-01T04:57:52.507Z,2.83
2022-09-01T05:00:26.093Z,2.07
2022-09-01T05:03:03.867Z,2.43
2022-09-01T05:05:43.353Z,2.53
2022-09-01T05:08:23.098Z,2.33
2022-09-01T05:10:57.456Z,2.63
2022-09-01T05:13:28.193Z,2.50
2022-09-01T05:16:07.240Z,2.20
2022-09-01T05:18:37.961Z,2.77
2022-09-01T05:21:11.916Z,2.97
2022-09-01T05:23:42.991Z,2.67
2022-09-01T05:26:18.780Z,2.40
2022-09-01T05:28:51.249Z,2.60
2022-09-01T05:31:24.626Z,2.83
2022-09-01T05:33:55.564Z,2.80
2022-09-01T05:36:27.620Z,3.10
2022-09-01T05:38:59.814Z,2.90
2022-09-01T05:41:30.963Z,3.00
2022-09-01T05:44:01.877Z,2.80
2022-09-01T05:46:34.819Z,2.43
2022-09-01T05:49:07.818Z,2.47
2022-09-01T05:51:50.850Z,2.60
2022-09-01T05:54:23.878Z,2.50
2022-09-01T05:56:55.155Z,2.87
2022-09-01T05:59:27.271Z,2.70
2022-09-01T06:02:00.062Z,2.87
2022-09-01T06:04:30.962Z,2.60
2022-09-01T06:07:07.106Z,3.00
2022-09-01T06:09:41.248Z,3.13
2022-09-01T06:12:18.817Z,2.93
2022-09-01T06:14:50.789Z,2.60
2022-09-01T06:17:25.678Z,2.83
2022-09-01T06:19:58.117Z,2.90
2022-09-01T06:22:30.032Z,2.90
2022-09-01T06:25:02.758Z,3.17
2022-09-01T06:27:34.953Z,2.70
2022-09-01T06:30:15.723Z,2.97
2022-09-01T06:32:50.455Z,2.53
2022-09-01T06:35:21.393Z,2.77
2022-09-01T06:37:52.130Z,2.97
2022-09-01T06:40:26.230Z,3.93
2022-09-01T06:42:57.020Z,2.73
2022-09-01T06:45:28.068Z,3.53
2022-09-01T06:48:00.570Z,3.30
2022-09-01T06:53:38.938Z,3.20
2022-09-01T06:56:14.239Z,3.50
2022-09-01T06:58:48.312Z,3.50
2022-09-01T07:01:21.163Z,3.07
2022-09-01T07:03:56.296Z,3.80
2022-09-01T07:09:47.098Z,3.50
2022-09-01T07:12:28.124Z,3.23
2022-09-01T07:17:53.074Z,3.47
2022-09-01T07:20:27.977Z,3.47
2022-09-01T07:26:04.453Z,4.07
2022-09-01T07:28:36.884Z,3.90
2022-09-01T07:39:53.196Z,3.20
2022-09-01T07:42:31.493Z,3.90
2022-09-01T07:45:33.143Z,4.23
2022-09-01T07:48:07.351Z,4.00
2022-09-01T07:51:34.208Z,3.60
2022-09-01T07:53:34.720Z,3.60
2022-09-01T07:56:10.940Z,3.67
2022-09-01T07:58:42.967Z,3.70
2022-09-01T08:01:18.035Z,3.80
2022-09-01T08:03:50.602Z,4.00
2022-09-01T08:06:23.491Z,4.20
2022-09-01T08:08:59.753Z,3.53
2022-09-01T08:12:00.580Z,4.13
2022-09-01T08:14:24.483Z,4.47
2022-09-01T08:16:55.476Z,4.67
2022-09-01T08:19:26.396Z,3.93
2022-09-01T08:21:57.105Z,4.33
2022-09-01T08:24:29.482Z,4.07
2022-09-01T08:27:00.222Z,4.40
2022-09-01T08:29:30.937Z,4.73
2022-09-01T08:32:01.732Z,3.40
2022-09-01T08:34:34.879Z,4.30
2022-09-01T08:37:05.974Z,4.93
2022-09-01T08:39:38.371Z,4.13
2022-09-01T08:42:16.763Z,4.50
2022-09-01T08:44:56.780Z,4.00
2022-09-01T08:47:30.381Z,4.30
2022-09-01T08:50:13.102Z,4.17
2022-09-01T08:52:47.631Z,3.93
2022-09-01T08:55:26.873Z,4.00
2022-09-01T08:58:00.337Z,3.70
2022-09-01T09:00:33.931Z,3.77
2022-09-01T09:03:14.637Z,4.23
2022-09-01T09:06:02.475Z,3.57
2022-09-01T09:08:53.880Z,4.30
2022-09-01T09:12:02.016Z,4.53
2022-09-01T09:14:48.397Z,4.73
2022-09-01T09:17:22.952Z,4.80
2022-09-01T09:19:53.816Z,4.30
2022-09-01T09:22:24.903Z,4.67
2022-09-01T09:24:58.872Z,4.43
2022-09-01T09:27:32.828Z,4.10
2022-09-01T09:30:09.235Z,4.17
2022-09-01T09:35:43.253Z,3.80
2022-09-01T09:38:29.638Z,4.03
2022-09-01T09:41:17.849Z,4.40
2022-09-01T09:43:59.444Z,3.60
2022-09-01T09:46:38.633Z,4.60
2022-09-01T09:49:15.753Z,3.43
2022-09-01T09:51:49.969Z,3.63
2022-09-01T09:54:24.804Z,3.80
2022-09-01T09:57:12.447Z,4.30
2022-09-01T10:00:04.095Z,3.63
2022-09-01T10:02:37.615Z,4.00
2022-09-01T10:05:30.888Z,4.40
2022-09-01T10:08:01.723Z,3.77
2022-09-01T10:10:40.064Z,4.60
2022-09-01T10:13:14.825Z,3.73
2022-09-01T10:15:51.404Z,4.77
2022-09-01T10:18:31.760Z,4.30
2022-09-01T10:21:05.334Z,4.07
2022-09-01T10:23:41.428Z,3.70
2022-09-01T10:26:16.775Z,3.70
2022-09-01T10:28:55.747Z,4.47
2022-09-01T10:31:32.600Z,4.43
2022-09-01T10:34:06.733Z,5.00
2022-09-01T10:36:38.900Z,4.30
2022-09-01T10:39:14.524Z,4.27
2022-09-01T10:41:59.769Z,3.90
2022-09-01T10:44:35.891Z,4.10
2022-09-01T10:47:16.442Z,4.20
2022-09-01T10:50:10.273Z,4.63
2022-09-01T10:53:08.821Z,4.33
2022-09-01T10:56:18.441Z,4.13
2022-09-01T11:02:23.562Z,4.50
2022-09-01T11:05:18.445Z,3.70
2022-09-01T11:08:15.049Z,4.63
2022-09-01T11:10:57.821Z,4.60
2022-09-01T11:13:49.989Z,4.10
2022-09-01T11:16:49.230Z,4.83
2022-09-01T11:19:44.703Z,4.90
2022-09-01T11:22:31.185Z,4.37
2022-09-01T11:25:41.530Z,4.57
2022-09-01T11:28:37.592Z,4.10
2022-09-01T11:31:28.832Z,4.17
2022-09-01T11:34:24.430Z,4.53
2022-09-01T11:37:05.753Z,5.00
2022-09-01T11:39:45.676Z,4.07
2022-09-01T11:42:22.318Z,5.20
2022-09-01T11:45:00.124Z,4.43
2022-09-01T11:47:34.583Z,5.87
2022-09-01T11:50:07.415Z,5.30
2022-09-01T11:52:42.238Z,4.90
2022-09-01T11:55:13.989Z,5.30
2022-09-01T11:57:44.720Z,5.80
2022-09-01T12:00:17.135Z,5.47
2022-09-01T12:02:50.919Z,6.23
2022-09-01T12:05:34.259Z,4.93
2022-09-01T12:08:14.828Z,5.73
2022-09-01T12:10:46.022Z,7.17
2022-09-01T12:13:22.410Z,5.80
2022-09-01T12:16:16.866Z,6.80
2022-09-01T12:18:49.762Z,5.80
2022-09-01T12:21:25.512Z,7.87
2022-09-01T12:24:12.386Z,7.30
2022-09-01T12:26:43.580Z,7.60
2022-09-01T12:29:15.759Z,8.33
2022-09-01T12:31:49.059Z,7.20
2022-09-01T12:34:41.516Z,8.13
2022-09-01T12:37:15.149Z,8.07
2022-09-01T12:39:49.270Z,7.43
2022-09-01T12:42:37.933Z,8.20
2022-09-01T12:45:14.032Z,7.70
2022-09-01T12:47:51.005Z,8.17
2022-09-01T12:50:51.632Z,8.03
2022-09-01T12:53:30.605Z,9.30
2022-09-01T12:56:22.578Z,7.40
2022-09-01T12:59:06.547Z,7.27
2022-09-01T13:01:44.444Z,6.67
2022-09-01T13:04:28.279Z,7.37
2022-09-01T13:07:05.124Z,7.73
2022-09-01T13:09:35.923Z,8.10
2022-09-01T13:12:21.600Z,7.47
2022-09-01T13:14:52.526Z,7.27
2022-09-01T13:17:23.962Z,7.90
2022-09-01T13:19:54.835Z,6.13
2022-09-01T13:22:25.655Z,7.87
2022-09-01T13:24:57.028Z,6.80
2022-09-01T13:27:29.571Z,7.93
2022-09-01T13:30:00.580Z,8.27
2022-09-01T13:32:31.388Z,7.80
2022-09-01T13:35:02.207Z,7.33
2022-09-01T13:37:33.717Z,7.57
2022-09-01T13:40:04.680Z,8.10
2022-09-01T13:42:37.680Z,7.30
2022-09-01T13:45:09.035Z,7.10
2022-09-01T13:48:15.343Z,7.50
2022-09-01T13:51:14.145Z,8.40
2022-09-01T13:53:22.046Z,7.77
2022-09-01T13:55:52.853Z,7.17
2022-09-01T13:58:25.210Z,7.97
2022-09-01T14:00:55.982Z,7.93
2022-09-01T14:03:29.033Z,8.33
2022-09-01T14:05:59.752Z,6.50
2022-09-01T14:08:31.568Z,7.93
2022-09-01T14:11:02.464Z,6.53
2022-09-01T14:13:35.294Z,7.93
2022-09-01T14:16:12.350Z,7.33
2022-09-01T14:18:43.671Z,8.70
2022-09-01T14:21:15.588Z,9.37
2022-09-01T14:23:46.839Z,8.17
2022-09-01T14:26:18.937Z,7.87
2022-09-01T14:28:51.502Z,7.73
2022-09-01T14:31:22.450Z,7.40
2022-09-01T14:33:53.808Z,7.30
2022-09-01T14:36:26.620Z,8.23
2022-09-01T14:38:57.587Z,7.40
2022-09-01T14:41:28.829Z,7.10
2022-09-01T14:44:03.635Z,6.40
2022-09-01T14:46:35.674Z,8.40
2022-09-01T14:49:07.972Z,8.37
2022-09-01T14:54:30.941Z,7.53
2022-09-01T14:59:54.065Z,7.37
2022-09-01T15:02:26.175Z,8.33
2022-09-01T15:04:56.957Z,7.50
2022-09-01T15:07:27.781Z,8.20
2022-09-01T15:09:59.650Z,7.53
2022-09-01T15:12:32.409Z,8.00
2022-09-01T15:15:05.205Z,6.83
2022-09-01T15:17:35.960Z,8.30
2022-09-01T15:20:21.707Z,8.00
2022-09-01T15:22:52.840Z,7.10
2022-09-01T15:25:23.841Z,7.60
2022-09-01T15:27:54.573Z,7.20
2022-09-01T15:30:27.041Z,7.90
2022-09-01T15:32:58.386Z,8.37
2022-09-01T15:35:33.085Z,8.77
2022-09-01T15:38:03.955Z,7.20
2022-09-01T15:40:34.971Z,7.23
2022-09-01T15:43:07.796Z,8.13
2022-09-01T15:45:40.462Z,7.80
2022-09-01T15:48:11.279Z,6.17
2022-09-01T15:50:42.296Z,7.80
2022-09-01T15:53:13.996Z,7.83
2022-09-01T15:55:49.064Z,8.70
2022-09-01T15:58:21.007Z,7.10
2022-09-01T16:00:53.706Z,6.63
2022-09-01T16:03:25.270Z,7.53
2022-09-01T16:05:55.993Z,7.70
2022-09-01T16:08:27.021Z,7.30
2022-09-01T16:10:57.937Z,8.00
2022-09-01T16:13:28.666Z,6.83
2022-09-01T16:16:16.458Z,7.30
2022-09-01T16:18:53.835Z,6.70
2022-09-01T16:21:32.197Z,6.70
2022-09-01T16:24:09.728Z,7.13
2022-09-01T16:26:40.924Z,6.77
2022-09-01T16:29:16.847Z,7.70
2022-09-01T16:31:54.075Z,6.50
2022-09-01T16:34:28.319Z,7.77
2022-09-01T16:37:07.344Z,8.00
2022-09-01T16:39:48.008Z,7.63
2022-09-01T16:42:29.865Z,7.20
2022-09-01T16:45:08.569Z,6.40
2022-09-01T16:47:57.197Z,7.33
2022-09-01T16:50:37.788Z,6.47
2022-09-01T16:53:22.105Z,7.30
2022-09-01T16:56:03.172Z,7.13
2022-09-01T16:58:46.338Z,6.77
2022-09-01T17:01:27.446Z,6.90
2022-09-01T17:04:13.352Z,7.13
2022-09-01T17:06:54.536Z,6.50
2022-09-01T17:09:33.426Z,7.50
2022-09-01T17:12:28.500Z,8.23
2022-09-01T17:15:04.874Z,7.73
2022-09-01T17:17:45.115Z,8.27
2022-09-01T17:20:17.695Z,7.27
2022-09-01T17:22:55.065Z,6.07
2022-09-01T17:25:33.438Z,6.17
2022-09-01T17:28:09.317Z,7.60
2022-09-01T17:30:50.079Z,7.20
2022-09-01T17:33:29.572Z,7.50
2022-09-01T17:36:13.949Z,8.57
2022-09-01T17:38:54.977Z,7.80
2022-09-01T17:41:35.524Z,7.60
2022-09-01T17:44:18.849Z,6.87
2022-09-01T17:46:56.659Z,8.23
2022-09-01T17:49:36.170Z,8.27
2022-09-01T17:52:16.887Z,7.00
2022-09-01T17:54:55.639Z,8.50
2022-09-01T17:57:34.136Z,7.30
2022-09-01T18:00:08.732Z,7.37
2022-09-01T18:03:15.580Z,7.70
2022-09-01T18:05:48.730Z,8.00
2022-09-01T18:08:32.296Z,8.07
2022-09-01T18:11:07.612Z,7.00
2022-09-01T18:13:54.026Z,7.17
2022-09-01T18:16:28.552Z,6.37
2022-09-01T18:19:05.221Z,7.17
2022-09-01T18:21:39.109Z,6.70
2022-09-01T18:24:17.840Z,6.60
2022-09-01T18:26:50.820Z,7.43
2022-09-01T18:29:23.958Z,7.30
2022-09-01T18:32:07.847Z,7.17
2022-09-01T18:35:12.392Z,6.10
2022-09-01T18:37:52.136Z,5.83
2022-09-01T18:40:30.390Z,6.73
2022-09-01T18:43:10.140Z,7.27
2022-09-01T18:45:51.966Z,7.00
2022-09-01T18:51:18.673Z,6.03
2022-09-01T18:53:54.710Z,5.93
2022-09-01T18:56:37.756Z,6.70
2022-09-01T18:59:22.097Z,5.63
2022-09-01T19:01:58.204Z,6.40
2022-09-01T19:04:34.455Z,5.40
2022-09-01T19:07:14.726Z,6.27
2022-09-01T19:09:53.007Z,6.03
2022-09-01T19:12:33.981Z,6.47
2022-09-01T19:15:12.183Z,6.20
2022-09-01T19:18:14.984Z,6.83
2022-09-01T19:20:53.408Z,5.97
2022-09-01T19:23:38.714Z,6.33
2022-09-01T19:26:15.376Z,6.73
2022-09-01T19:28:50.157Z,6.40
2022-09-01T19:31:26.273Z,6.43
2022-09-01T19:34:03.496Z,6.30
2022-09-01T19:36:39.477Z,6.60
2022-09-01T19:39:12.512Z,5.73
2022-09-01T19:41:51.177Z,7.10
2022-09-01T19:44:30.903Z,6.50
2022-09-01T19:47:07.670Z,6.77
2022-09-01T19:49:46.430Z,6.87
2022-09-01T19:52:26.520Z,7.00
2022-09-01T19:55:04.497Z,6.60
2022-09-01T19:57:40.217Z,7.30
2022-09-01T20:00:17.232Z,6.90
2022-09-01T20:02:56.483Z,7.53
2022-09-01T20:05:32.844Z,7.30
2022-09-01T20:08:05.951Z,7.10
2022-09-01T20:10:56.297Z,6.63
2022-09-01T20:13:54.908Z,7.20
2022-09-01T20:16:33.284Z,6.33
2022-09-01T20:19:08.672Z,6.13
2022-09-01T20:21:42.344Z,7.30
2022-09-01T20:24:20.465Z,7.63
2022-09-01T20:26:58.947Z,6.90
2022-09-01T20:29:37.614Z,7.13
2022-09-01T20:32:10.870Z,6.43
2022-09-01T20:34:47.008Z,6.90
2022-09-01T20:37:22.525Z,7.27
2022-09-01T20:40:01.247Z,6.93
2022-09-01T20:42:39.639Z,7.07
2022-09-01T20:45:16.852Z,6.50
2022-09-01T20:47:55.420Z,6.20
2022-09-01T20:50:42.263Z,7.77
2022-09-01T20:53:26.894Z,7.33
2022-09-01T20:56:00.742Z,6.90
2022-09-01T20:58:36.120Z,7.00
2022-09-01T21:01:18.280Z,6.53
2022-09-01T21:04:04.646Z,7.23
2022-09-01T21:06:50.104Z,6.63
2022-09-01T21:09:32.080Z,6.47
2022-09-01T21:12:09.754Z,7.10
2022-09-01T21:14:55.472Z,6.87
2022-09-01T21:17:32.950Z,7.37
2022-09-01T21:20:15.545Z,7.50
2022-09-01T21:22:46.275Z,7.83
2022-09-01T21:25:17.103Z,7.50
2022-09-01T21:27:52.836Z,7.97
2022-09-01T21:30:24.819Z,8.03
2022-09-01T21:32:57.755Z,8.20
2022-09-01T21:35:30.153Z,7.53
2022-09-01T21:38:00.855Z,7.50
2022-09-01T21:40:31.749Z,8.73
2022-09-01T21:43:06.939Z,8.37
2022-09-01T21:45:40.487Z,7.67
2022-09-01T21:48:11.585Z,7.17
2022-09-01T21:50:45.179Z,8.60
2022-09-01T21:53:16.177Z,8.00
2022-09-01T21:55:47.255Z,7.90
2022-09-01T21:58:18.193Z,7.73
2022-09-01T22:00:50.034Z,8.50
2022-09-01T22:03:21.005Z,8.70
2022-09-01T22:05:53.597Z,8.83
2022-09-01T22:08:24.356Z,7.00
2022-09-01T22:10:57.230Z,7.17
2022-09-01T22:13:28.320Z,6.57
2022-09-01T22:15:59.078Z,7.67
2022-09-01T22:18:29.909Z,7.50
2022-09-01T22:21:07.242Z,7.50
2022-09-01T22:23:38.656Z,6.77
2022-09-01T22:26:13.705Z,7.10
2022-09-01T22:28:46.303Z,6.43
2022-09-01T22:31:17.993Z,6.43
2022-09-01T22:33:48.892Z,5.60
2022-09-01T22:36:31.690Z,7.10
2022-09-01T22:39:03.087Z,6.00
2022-09-01T22:41:35.057Z,6.90
2022-09-01T22:44:06.640Z,6.40
2022-09-01T22:46:37.886Z,5.63
2022-09-01T22:49:09.309Z,5.50
2022-09-01T22:51:43.704Z,6.17
2022-09-01T22:54:14.783Z,5.20
2022-09-01T22:56:45.983Z,5.80
2022-09-01T22:59:17.752Z,6.00
2022-09-01T23:01:50.412Z,5.23
2022-09-01T23:04:21.647Z,4.97
2022-09-01T23:06:56.768Z,5.37
2022-09-01T23:09:27.781Z,4.10
2022-09-01T23:11:58.688Z,4.60
2022-09-01T23:14:29.420Z,4.50
2022-09-01T23:17:00.227Z,4.43
2022-09-01T23:19:30.987Z,4.37
2022-09-01T23:22:03.866Z,3.67
2022-09-01T23:24:34.673Z,4.77
2022-09-01T23:27:05.549Z,4.53
2022-09-01T23:29:36.357Z,3.83
2022-09-01T23:32:07.555Z,4.73
2022-09-01T23:34:38.335Z,3.80
2022-09-01T23:37:10.673Z,3.73
2022-09-01T23:39:41.400Z,3.93
2022-09-01T23:42:12.301Z,3.70
2022-09-01T23:44:43.119Z,4.13
2022-09-01T23:47:13.813Z,4.67
2022-09-01T23:49:44.892Z,4.23
2022-09-01T23:52:17.301Z,4.97
2022-09-01T23:54:48.052Z,4.80
2022-09-01T23:57:19.880Z,5.30
2022-09-01T23:59:50.898Z,5.43
